Time;durP1;ratioP1;P1;durP2;ratioP2;P2;SDS_P1;SDS_P2;PMS_P1;PMS_P2;Temp;Humidity;BMP_temperature;BMP_pressure;BME280_temperature;BME280_humidity;BME280_pressure;Samples;Min_cycle;Max_cycle;Signal;HPM_P1;HPM_P2
2021/12/14 00:01:53;;;;;;;;;15.25;12.25;;;;;;;;5049247;28;45377;-73
2021/12/14 00:04:20;;;;;;;;;16.75;11.75;;;;;;;;5051758;28;45494;-72
2021/12/14 00:06:48;;;;;;;;;11.75;11.00;;;;;;;;5034761;28;45543;-72
2021/12/14 00:09:24;;;;;;;;;14.25;12.00;;;;;;;;5038566;28;45386;-71
2021/12/14 00:12:09;;;;;;;;;14.25;12.25;;;;;;;;5049219;28;45863;-72
2021/12/14 00:17:07;;;;;;;;;16.50;13.25;;;;;;;;5047760;28;45468;-70
2021/12/14 00:19:32;;;;;;;;;10.25;9.00;;;;;;;;5048747;28;45507;-72
2021/12/14 00:22:05;;;;;;;;;9.75;9.75;;;;;;;;5052834;28;45539;-72
2021/12/14 00:24:32;;;;;;;;;12.00;12.00;;;;;;;;5047009;27;47710;-72
2021/12/14 00:27:07;;;;;;;;;15.50;14.00;;;;;;;;5103521;27;45470;-73
2021/12/14 00:29:33;;;;;;;;;18.00;13.25;;;;;;;;5111268;27;45395;-73
2021/12/14 00:32:01;;;;;;;;;15.25;11.75;;;;;;;;5093820;27;45182;-72
2021/12/14 00:34:38;;;;;;;;;10.25;10.00;;;;;;;;5113449;27;45380;-73
2021/12/14 00:37:04;;;;;;;;;14.50;11.25;;;;;;;;5081266;27;45618;-72
2021/12/14 00:39:30;;;;;;;;;15.00;12.00;;;;;;;;5102599;27;45349;-73
2021/12/14 00:41:55;;;;;;;;;20.50;18.25;;;;;;;;5084903;27;45638;-72
2021/12/14 00:44:21;;;;;;;;;13.00;12.50;;;;;;;;5103426;27;45591;-72
2021/12/14 00:46:46;;;;;;;;;11.00;11.00;;;;;;;;5084788;27;45547;-72
2021/12/14 00:49:12;;;;;;;;;10.75;10.75;;;;;;;;5100296;27;45526;-73
2021/12/14 00:51:37;;;;;;;;;11.75;8.75;;;;;;;;5082839;27;45374;-71
2021/12/14 00:54:04;;;;;;;;;16.25;15.25;;;;;;;;5103405;27;45757;-73
2021/12/14 00:56:33;;;;;;;;;9.50;9.00;;;;;;;;5103385;27;45329;-72
2021/12/14 00:58:58;;;;;;;;;12.00;12.00;;;;;;;;5102100;27;45516;-72
2021/12/14 01:01:28;;;;;;;;;14.25;12.25;;;;;;;;5083364;27;45459;-73
2021/12/14 01:04:01;;;;;;;;;13.75;13.75;;;;;;;;5099475;27;46286;-73
2021/12/14 01:06:28;;;;;;;;;10.00;8.75;;;;;;;;5083944;27;46543;-72
2021/12/14 01:08:53;;;;;;;;;16.75;11.00;;;;;;;;5084870;27;45332;-71
2021/12/14 01:11:25;;;;;;;;;12.75;12.75;;;;;;;;5103086;27;45438;-72
2021/12/14 01:13:58;;;;;;;;;10.25;9.00;;;;;;;;5084547;27;48598;-72
2021/12/14 01:16:34;;;;;;;;;14.25;12.50;;;;;;;;5083125;27;45284;-72
2021/12/14 01:19:15;;;;;;;;;11.50;10.75;;;;;;;;5098746;27;45238;-72
2021/12/14 01:22:11;;;;;;;;;8.50;7.50;;;;;;;;5114588;27;45183;-72
2021/12/14 01:25:00;;;;;;;;;10.25;10.25;;;;;;;;5113695;27;45384;-72
2021/12/14 01:27:25;;;;;;;;;11.00;10.00;;;;;;;;5101559;27;45559;-71
2021/12/14 01:29:53;;;;;;;;;9.25;9.25;;;;;;;;5084547;27;45611;-72
2021/12/14 01:32:21;;;;;;;;;14.50;12.00;;;;;;;;5102859;27;45420;-72
2021/12/14 01:34:46;;;;;;;;;12.00;9.75;;;;;;;;5084108;27;47755;-72
2021/12/14 01:37:17;;;;;;;;;10.25;9.25;;;;;;;;5099638;27;45354;-72
2021/12/14 01:40:00;;;;;;;;;9.75;9.75;;;;;;;;5082057;27;45472;-72
2021/12/14 01:42:27;;;;;;;;;8.25;8.25;;;;;;;;5094753;27;45450;-72
2021/12/14 01:44:59;;;;;;;;;8.50;7.25;;;;;;;;5110648;27;46761;-72
2021/12/14 01:47:26;;;;;;;;;9.00;9.00;;;;;;;;5092338;27;45264;-73
2021/12/14 01:49:52;;;;;;;;;12.50;9.75;;;;;;;;5111098;27;45290;-72
2021/12/14 01:52:23;;;;;;;;;11.00;10.00;;;;;;;;5095146;27;45376;-73
2021/12/14 01:54:50;;;;;;;;;11.25;10.25;;;;;;;;5095351;27;47626;-72
2021/12/14 01:57:17;;;;;;;;;7.75;7.75;;;;;;;;5112848;27;45455;-73
2021/12/14 01:59:44;;;;;;;;;10.00;10.00;;;;;;;;5110897;27;45656;-72
2021/12/14 02:04:43;;;;;;;;;9.00;9.00;;;;;;;;5102101;27;46399;-73
2021/12/14 02:07:09;;;;;;;;;13.50;11.25;;;;;;;;5079920;27;45445;-71
2021/12/14 02:09:35;;;;;;;;;9.00;9.00;;;;;;;;5095576;27;45466;-72
2021/12/14 02:12:06;;;;;;;;;15.75;14.00;;;;;;;;5090236;27;45403;-73
2021/12/14 02:14:32;;;;;;;;;13.50;10.25;;;;;;;;5085736;27;45353;-73
2021/12/14 02:16:59;;;;;;;;;11.50;11.50;;;;;;;;5106784;27;45335;-72
2021/12/14 02:19:25;;;;;;;;;14.50;13.50;;;;;;;;5100905;27;45441;-73
2021/12/14 02:21:52;;;;;;;;;12.25;11.25;;;;;;;;5093733;27;45666;-73
2021/12/14 02:24:19;;;;;;;;;12.00;11.00;;;;;;;;5112590;27;45393;-73
2021/12/14 02:26:45;;;;;;;;;12.25;11.00;;;;;;;;5110249;27;45432;-73
2021/12/14 02:29:21;;;;;;;;;10.25;10.25;;;;;;;;5110454;27;45574;-71
2021/12/14 02:31:46;;;;;;;;;10.00;9.00;;;;;;;;5092034;27;45566;-73
2021/12/14 02:34:11;;;;;;;;;12.25;10.50;;;;;;;;5113457;27;45526;-73
2021/12/14 02:36:42;;;;;;;;;10.75;10.75;;;;;;;;5112886;27;45234;-71
2021/12/14 02:39:22;;;;;;;;;12.75;10.00;;;;;;;;5111970;27;45466;-73
2021/12/14 02:41:49;;;;;;;;;12.75;11.50;;;;;;;;5091958;27;45566;-72
2021/12/14 02:44:15;;;;;;;;;18.50;13.25;;;;;;;;5091309;27;46401;-73
2021/12/14 02:46:42;;;;;;;;;15.50;14.25;;;;;;;;5109674;27;45399;-73
2021/12/14 02:49:10;;;;;;;;;16.75;13.50;;;;;;;;5079964;27;45303;-73
2021/12/14 02:51:40;;;;;;;;;17.50;17.50;;;;;;;;5081558;27;45322;-72
2021/12/14 02:54:17;;;;;;;;;12.25;12.25;;;;;;;;5093567;27;47560;-73
2021/12/14 02:56:44;;;;;;;;;17.75;14.25;;;;;;;;5109713;27;45858;-73
2021/12/14 02:59:15;;;;;;;;;17.00;14.75;;;;;;;;5110094;27;45392;-72
2021/12/14 03:01:42;;;;;;;;;10.75;10.75;;;;;;;;5110121;27;45467;-73
2021/12/14 03:04:08;;;;;;;;;17.25;14.50;;;;;;;;5079752;27;46496;-72
2021/12/14 03:06:44;;;;;;;;;13.00;11.50;;;;;;;;5096862;27;45617;-72
2021/12/14 03:09:20;;;;;;;;;14.25;12.25;;;;;;;;5093447;27;45389;-72
2021/12/14 03:11:46;;;;;;;;;21.75;15.75;;;;;;;;5104328;27;45389;-72
2021/12/14 03:14:11;;;;;;;;;16.00;14.75;;;;;;;;5082657;27;47447;-73
2021/12/14 03:16:38;;;;;;;;;15.25;14.25;;;;;;;;5083086;27;45453;-72
2021/12/14 03:19:06;;;;;;;;;19.00;15.75;;;;;;;;5097169;27;45424;-72
2021/12/14 03:21:33;;;;;;;;;14.75;12.75;;;;;;;;5112516;27;45371;-72
2021/12/14 03:24:07;;;;;;;;;16.00;16.00;;;;;;;;5094289;27;47912;-73
2021/12/14 03:26:34;;;;;;;;;23.25;15.75;;;;;;;;5094609;27;45385;-73
2021/12/14 03:29:00;;;;;;;;;15.00;13.75;;;;;;;;5113407;27;45296;-71
2021/12/14 03:31:29;;;;;;;;;13.50;13.50;;;;;;;;5114778;27;45379;-70
2021/12/14 03:33:57;;;;;;;;;15.50;14.00;;;;;;;;5116829;27;45474;-72
2021/12/14 03:36:45;;;;;;;;;16.75;13.25;;;;;;;;5097042;27;45447;-72
2021/12/14 03:39:12;;;;;;;;;13.00;10.75;;;;;;;;5101234;27;46994;-72
2021/12/14 03:41:58;;;;;;;;;9.75;9.25;;;;;;;;5112996;27;45346;-73
2021/12/14 03:44:25;;;;;;;;;12.75;11.50;;;;;;;;5093848;27;48587;-73
2021/12/14 03:46:59;;;;;;;;;10.00;9.00;;;;;;;;5112985;27;45321;-73
2021/12/14 03:49:27;;;;;;;;;18.50;12.00;;;;;;;;5096400;27;45462;-71
2021/12/14 03:51:52;;;;;;;;;11.75;11.25;;;;;;;;5116484;27;45391;-72
2021/12/14 03:54:18;;;;;;;;;11.75;11.75;;;;;;;;5096632;27;47781;-72
2021/12/14 03:56:43;;;;;;;;;15.00;14.00;;;;;;;;5094147;27;46258;-72
2021/12/14 03:59:09;;;;;;;;;15.50;13.75;;;;;;;;5113159;27;45270;-71
2021/12/14 04:01:36;;;;;;;;;14.00;12.00;;;;;;;;5113323;27;45363;-72
2021/12/14 04:04:09;;;;;;;;;18.50;13.25;;;;;;;;5082795;27;48638;-72
2021/12/14 04:06:34;;;;;;;;;15.25;11.50;;;;;;;;5093795;27;46166;-72
2021/12/14 04:08:59;;;;;;;;;15.50;13.50;;;;;;;;5113295;27;45450;-72
2021/12/14 04:11:25;;;;;;;;;13.50;11.00;;;;;;;;5094473;27;45306;-71
2021/12/14 04:13:51;;;;;;;;;12.50;12.50;;;;;;;;5112676;27;45289;-72
2021/12/14 04:16:18;;;;;;;;;13.75;13.75;;;;;;;;5097040;27;45418;-71
2021/12/14 04:18:43;;;;;;;;;11.75;11.75;;;;;;;;5115661;27;45450;-71
2021/12/14 04:21:09;;;;;;;;;10.00;9.50;;;;;;;;5095277;27;45290;-72
2021/12/14 04:23:37;;;;;;;;;16.75;13.75;;;;;;;;5112382;27;45629;-72
2021/12/14 04:26:03;;;;;;;;;11.25;11.25;;;;;;;;5113518;27;45424;-72
2021/12/14 04:28:31;;;;;;;;;10.00;10.00;;;;;;;;5088492;27;45550;-70
2021/12/14 04:30:56;;;;;;;;;13.25;12.25;;;;;;;;5083154;27;45444;-71
2021/12/14 04:33:23;;;;;;;;;13.50;13.50;;;;;;;;5088933;27;48726;-72
2021/12/14 04:35:50;;;;;;;;;11.75;10.75;;;;;;;;5091815;27;45459;-71
2021/12/14 04:38:23;;;;;;;;;14.00;11.00;;;;;;;;5112085;27;45380;-72
2021/12/14 04:52:08;;;;;;;;;8.25;6.75;;;;;;;;5039464;28;45429;-72
2021/12/14 04:54:42;;;;;;;;;14.75;10.25;;;;;;;;5038773;28;46317;-72
2021/12/14 04:57:22;;;;;;;;;6.00;6.00;;;;;;;;5037165;28;46363;-72
2021/12/14 04:59:47;;;;;;;;;10.50;10.50;;;;;;;;5044680;28;45416;-72
2021/12/14 05:02:16;;;;;;;;;6.25;6.25;;;;;;;;5043144;28;45490;-72
2021/12/14 05:04:41;;;;;;;;;9.25;9.25;;;;;;;;5024253;28;47603;-72
2021/12/14 05:09:51;;;;;;;;;9.00;9.00;;;;;;;;5038347;28;45523;-71
2021/12/14 05:12:19;;;;;;;;;10.25;10.25;;;;;;;;5037351;28;45504;-71
2021/12/14 05:14:45;;;;;;;;;9.50;9.50;;;;;;;;5044507;28;45888;-72
2021/12/14 05:17:13;;;;;;;;;9.00;8.00;;;;;;;;5039940;27;46193;-72
2021/12/14 05:19:39;;;;;;;;;9.75;9.75;;;;;;;;5101924;27;45345;-72
2021/12/14 05:22:09;;;;;;;;;10.25;9.50;;;;;;;;5106578;27;45437;-72
2021/12/14 05:24:37;;;;;;;;;10.00;10.00;;;;;;;;5087858;27;47692;-71
2021/12/14 05:27:04;;;;;;;;;11.50;9.50;;;;;;;;5107248;27;46097;-72
2021/12/14 05:29:29;;;;;;;;;11.25;10.25;;;;;;;;5088521;27;45612;-72
2021/12/14 05:31:57;;;;;;;;;11.75;10.00;;;;;;;;5084897;27;45302;-73
2021/12/14 05:34:24;;;;;;;;;9.25;9.25;;;;;;;;5085309;27;47693;-72
2021/12/14 05:36:50;;;;;;;;;13.75;10.25;;;;;;;;5087707;27;45397;-72
2021/12/14 05:44:41;;;;;;;;;8.25;7.25;;;;;;;;5102342;27;45717;-72
2021/12/14 05:47:10;;;;;;;;;10.00;9.00;;;;;;;;5101297;27;45714;-73
2021/12/14 05:49:36;;;;;;;;;10.50;10.50;;;;;;;;5088102;27;45338;-72
2021/12/14 05:52:05;;;;;;;;;10.75;10.00;;;;;;;;5078550;27;45453;-72
2021/12/14 05:54:32;;;;;;;;;11.00;10.50;;;;;;;;5090272;27;48917;-72
2021/12/14 05:56:58;;;;;;;;;9.00;9.00;;;;;;;;5091396;27;46604;-72
2021/12/14 05:59:27;;;;;;;;;13.25;12.25;;;;;;;;5088206;27;45419;-72
2021/12/14 06:01:53;;;;;;;;;11.25;10.50;;;;;;;;5102295;27;45435;-72
2021/12/14 06:04:18;;;;;;;;;9.75;9.75;;;;;;;;5080004;27;48572;-72
2021/12/14 06:06:52;;;;;;;;;11.50;8.25;;;;;;;;5099226;27;45320;-72
2021/12/14 06:09:28;;;;;;;;;14.00;11.00;;;;;;;;5106787;27;45477;-72
2021/12/14 06:11:58;;;;;;;;;18.25;16.75;;;;;;;;5100985;27;49834;-72
2021/12/14 06:14:25;;;;;;;;;14.25;14.25;;;;;;;;5109197;27;46865;-71
2021/12/14 06:16:54;;;;;;;;;10.50;10.00;;;;;;;;5110168;27;45372;-73
2021/12/14 06:19:22;;;;;;;;;16.50;13.25;;;;;;;;5113148;27;47051;-73
2021/12/14 06:21:51;;;;;;;;;11.25;11.00;;;;;;;;5094975;27;45294;-72
2021/12/14 06:24:16;;;;;;;;;12.50;11.25;;;;;;;;5103690;27;46136;-72
2021/12/14 06:26:47;;;;;;;;;15.00;15.00;;;;;;;;5085783;27;45977;-72
2021/12/14 06:29:17;;;;;;;;;9.00;9.00;;;;;;;;5083952;27;45663;-73
2021/12/14 06:31:42;;;;;;;;;14.75;12.00;;;;;;;;5114564;27;45475;-74
2021/12/14 06:34:25;;;;;;;;;14.50;10.00;;;;;;;;5111797;27;46005;-73
2021/12/14 06:37:14;;;;;;;;;11.50;11.50;;;;;;;;5079795;27;46225;-72
2021/12/14 06:40:02;;;;;;;;;11.50;11.50;;;;;;;;5095647;27;45384;-73
2021/12/14 06:42:28;;;;;;;;;6.00;4.75;;;;;;;;5091134;27;45365;-73
2021/12/14 06:45:23;;;;;;;;;9.25;7.75;;;;;;;;5101747;27;45731;-73
2021/12/14 06:47:53;;;;;;;;;11.75;9.75;;;;;;;;5077705;27;45338;-72
2021/12/14 06:50:20;;;;;;;;;14.50;13.00;;;;;;;;5090579;27;45274;-73
2021/12/14 06:53:00;;;;;;;;;9.75;7.75;;;;;;;;5089397;27;45293;-74
2021/12/14 06:55:26;;;;;;;;;10.25;10.25;;;;;;;;5094134;27;47743;-73
2021/12/14 06:57:51;;;;;;;;;14.25;12.50;;;;;;;;5114751;27;45350;-71
2021/12/14 07:00:17;;;;;;;;;11.75;11.75;;;;;;;;5109232;27;45505;-73
2021/12/14 07:02:49;;;;;;;;;12.25;12.25;;;;;;;;5100347;27;45351;-72
2021/12/14 07:05:22;;;;;;;;;14.25;10.00;;;;;;;;5082225;27;47915;-72
2021/12/14 07:07:47;;;;;;;;;15.00;14.25;;;;;;;;5077999;27;45322;-72
2021/12/14 07:10:12;;;;;;;;;10.25;9.25;;;;;;;;5112822;27;45316;-71
2021/12/14 07:12:38;;;;;;;;;6.50;6.50;;;;;;;;5115376;27;45506;-71
2021/12/14 07:15:36;;;;;;;;;11.75;11.75;;;;;;;;5101018;27;45505;-71
2021/12/14 07:18:04;;;;;;;;;12.75;9.75;;;;;;;;5046491;28;45823;-72
2021/12/14 07:20:30;;;;;;;;;10.50;9.00;;;;;;;;5025948;28;45702;-72
2021/12/14 07:23:01;;;;;;;;;14.00;14.00;;;;;;;;5051306;28;45401;-73
2021/12/14 07:25:31;;;;;;;;;12.25;10.50;;;;;;;;5031162;28;47216;-71
2021/12/14 07:28:00;;;;;;;;;10.25;9.25;;;;;;;;5033602;28;46153;-72
2021/12/14 07:30:40;;;;;;;;;12.00;10.25;;;;;;;;5040171;28;45719;-72
2021/12/14 07:33:12;;;;;;;;;10.00;10.00;;;;;;;;5063550;27;45614;-73
2021/12/14 07:35:50;;;;;;;;;13.25;11.25;;;;;;;;5053406;28;48298;-71
2021/12/14 07:38:15;;;;;;;;;14.50;12.25;;;;;;;;5070722;28;45555;-72
2021/12/14 07:40:41;;;;;;;;;11.75;10.50;;;;;;;;5049491;28;45409;-72
2021/12/14 07:43:18;;;;;;;;;12.75;12.75;;;;;;;;5067553;28;45431;-71
2021/12/14 07:45:44;;;;;;;;;11.25;10.00;;;;;;;;5067526;28;45490;-73
2021/12/14 07:48:09;;;;;;;;;13.00;11.50;;;;;;;;5061195;28;45444;-73
2021/12/14 07:50:42;;;;;;;;;17.00;12.00;;;;;;;;5065951;28;45488;-74
2021/12/14 07:53:08;;;;;;;;;15.25;15.00;;;;;;;;5059831;27;45402;-73
2021/12/14 07:55:37;;;;;;;;;14.50;14.00;;;;;;;;5112704;27;45773;-72
2021/12/14 07:58:05;;;;;;;;;16.25;15.25;;;;;;;;5090744;27;45527;-71
2021/12/14 08:00:35;;;;;;;;;13.25;12.00;;;;;;;;5109331;27;45500;-73
2021/12/14 08:03:02;;;;;;;;;13.75;13.75;;;;;;;;5097675;27;45395;-73
2021/12/14 08:05:27;;;;;;;;;16.25;13.75;;;;;;;;5102165;27;46370;-73
2021/12/14 08:07:58;;;;;;;;;15.25;13.75;;;;;;;;5081635;27;45341;-72
2021/12/14 08:10:27;;;;;;;;;16.75;15.75;;;;;;;;5093854;27;45448;-73
2021/12/14 08:12:58;;;;;;;;;17.50;16.50;;;;;;;;5081588;27;45405;-73
2021/12/14 08:15:31;;;;;;;;;18.25;15.00;;;;;;;;5101984;27;45437;-73
2021/12/14 08:18:02;;;;;;;;;21.50;19.25;;;;;;;;5103430;27;45750;-71
2021/12/14 08:20:27;;;;;;;;;17.50;14.25;;;;;;;;5108873;27;45451;-72
2021/12/14 08:22:53;;;;;;;;;23.25;23.25;;;;;;;;5111354;27;45457;-74
2021/12/14 08:25:23;;;;;;;;;19.25;18.00;;;;;;;;5095402;27;48597;-73
2021/12/14 08:27:55;;;;;;;;;24.50;22.25;;;;;;;;5109654;27;45336;-72
2021/12/14 08:30:21;;;;;;;;;22.00;20.25;;;;;;;;5098251;27;45518;-74
2021/12/14 08:32:48;;;;;;;;;22.00;22.00;;;;;;;;5092641;27;45535;-73
2021/12/14 08:35:14;;;;;;;;;26.00;24.00;;;;;;;;5110985;27;45698;-73
2021/12/14 08:37:43;;;;;;;;;29.00;25.50;;;;;;;;5114264;27;45573;-73
2021/12/14 08:40:11;;;;;;;;;21.50;20.00;;;;;;;;5100551;27;45325;-74
2021/12/14 08:42:45;;;;;;;;;24.00;24.00;;;;;;;;5095538;27;45422;-74
2021/12/14 08:45:26;;;;;;;;;19.00;17.25;;;;;;;;5112246;27;45879;-73
2021/12/14 08:48:11;;;;;;;;;24.25;21.50;;;;;;;;5083826;27;45464;-73
2021/12/14 08:50:43;;;;;;;;;18.00;17.25;;;;;;;;5107505;27;45337;-73
2021/12/14 08:53:10;;;;;;;;;18.50;17.00;;;;;;;;5111476;27;45426;-72
2021/12/14 08:55:37;;;;;;;;;23.00;20.75;;;;;;;;5111145;27;46800;-74
2021/12/14 08:58:03;;;;;;;;;17.75;17.50;;;;;;;;5097177;27;45388;-73
2021/12/14 09:00:33;;;;;;;;;19.75;17.50;;;;;;;;5114608;27;45389;-73
2021/12/14 09:03:00;;;;;;;;;20.75;16.50;;;;;;;;5111062;27;44857;-72
2021/12/14 09:05:29;;;;;;;;;21.75;18.00;;;;;;;;5107923;27;45926;-74
2021/12/14 09:07:55;;;;;;;;;20.50;17.50;;;;;;;;5084212;27;46145;-73
2021/12/14 09:10:22;;;;;;;;;20.75;17.00;;;;;;;;5102367;27;46975;-73
2021/12/14 09:12:49;;;;;;;;;25.75;21.25;;;;;;;;5081730;27;45409;-74
2021/12/14 09:15:14;;;;;;;;;12.50;12.50;;;;;;;;5100978;27;46783;-74
2021/12/14 09:17:40;;;;;;;;;19.00;16.75;;;;;;;;5101839;27;45364;-72
2021/12/14 09:20:11;;;;;;;;;22.75;20.00;;;;;;;;5102615;27;45427;-74
2021/12/14 09:22:41;;;;;;;;;16.25;14.50;;;;;;;;5099229;27;45365;-72
2021/12/14 09:25:09;;;;;;;;;22.50;16.00;;;;;;;;5099344;27;47711;-73
2021/12/14 09:27:34;;;;;;;;;14.25;12.25;;;;;;;;5112923;27;45361;-73
2021/12/14 09:30:00;;;;;;;;;19.00;18.00;;;;;;;;5111254;27;45532;-74
2021/12/14 09:32:28;;;;;;;;;15.25;15.25;;;;;;;;5115883;27;45522;-73
2021/12/14 09:34:55;;;;;;;;;21.75;19.75;;;;;;;;5110778;27;45812;-73
2021/12/14 09:37:21;;;;;;;;;22.00;18.00;;;;;;;;5112826;27;45522;-72
2021/12/14 09:39:48;;;;;;;;;27.50;22.00;;;;;;;;5095254;27;45343;-73
2021/12/14 09:42:15;;;;;;;;;22.75;21.50;;;;;;;;5093941;27;45423;-72
2021/12/14 09:44:41;;;;;;;;;26.25;24.50;;;;;;;;5085809;27;47841;-73
2021/12/14 09:47:12;;;;;;;;;27.75;26.75;;;;;;;;5093428;27;46193;-74
2021/12/14 09:49:38;;;;;;;;;24.50;23.75;;;;;;;;5110341;27;45411;-73
2021/12/14 09:52:09;;;;;;;;;26.00;22.25;;;;;;;;5088477;27;45345;-74
2021/12/14 09:54:35;;;;;;;;;28.75;22.50;;;;;;;;5094120;27;47628;-74
2021/12/14 09:57:12;;;;;;;;;27.00;25.50;;;;;;;;5095145;27;45510;-74
2021/12/14 09:59:37;;;;;;;;;21.25;21.25;;;;;;;;5090900;27;45573;-73
2021/12/14 10:02:08;;;;;;;;;21.75;19.00;;;;;;;;5091293;27;45339;-74
2021/12/14 10:04:36;;;;;;;;;19.25;15.25;;;;;;;;5096039;27;47537;-74
2021/12/14 10:07:04;;;;;;;;;25.00;19.00;;;;;;;;5090115;27;45380;-74
2021/12/14 10:09:31;;;;;;;;;25.00;21.25;;;;;;;;5112017;27;45363;-74
2021/12/14 10:12:16;;;;;;;;;25.00;23.50;;;;;;;;5109667;27;45415;-75
2021/12/14 10:14:42;;;;;;;;;23.75;22.50;;;;;;;;5091406;27;48502;-73
2021/12/14 10:17:09;;;;;;;;;19.50;16.75;;;;;;;;5108706;27;45372;-74
2021/12/14 10:19:35;;;;;;;;;23.00;20.75;;;;;;;;5082709;27;45389;-73
2021/12/14 10:22:04;;;;;;;;;28.25;26.50;;;;;;;;5078726;27;45414;-74
2021/12/14 10:24:29;;;;;;;;;21.00;20.75;;;;;;;;5087398;27;47758;-71
2021/12/14 10:27:00;;;;;;;;;23.25;20.00;;;;;;;;5109781;27;45336;-70
2021/12/14 10:29:28;;;;;;;;;25.75;22.75;;;;;;;;5109109;27;45313;-68
2021/12/14 10:31:59;;;;;;;;;27.75;25.00;;;;;;;;5115329;27;45509;-70
2021/12/14 10:34:26;;;;;;;;;24.50;21.75;;;;;;;;5112981;27;45714;-70
2021/12/14 10:36:59;;;;;;;;;24.25;23.25;;;;;;;;5104155;27;45486;-70
2021/12/14 10:44:58;;;;;;;;;30.50;29.25;;;;;;;;5052081;28;45792;-71
2021/12/14 10:47:25;;;;;;;;;28.25;28.25;;;;;;;;5045559;28;45496;-69
2021/12/14 10:49:51;;;;;;;;;28.25;27.00;;;;;;;;5048765;28;45350;-70
2021/12/14 10:52:18;;;;;;;;;30.25;28.50;;;;;;;;5052351;28;45583;-71
2021/12/14 10:54:46;;;;;;;;;27.50;25.00;;;;;;;;5051871;28;47660;-71
2021/12/14 10:57:13;;;;;;;;;28.50;25.50;;;;;;;;5039181;28;45314;-71
2021/12/14 10:59:41;;;;;;;;;21.00;19.75;;;;;;;;5040077;28;45490;-71
2021/12/14 11:02:07;;;;;;;;;20.75;20.75;;;;;;;;5040239;28;45855;-70
2021/12/14 11:04:39;;;;;;;;;22.25;20.25;;;;;;;;5039286;28;48693;-69
2021/12/14 11:07:09;;;;;;;;;26.50;26.50;;;;;;;;5051303;28;45453;-69
2021/12/14 11:09:52;;;;;;;;;23.50;21.75;;;;;;;;5048271;28;45247;-69
2021/12/14 11:12:28;;;;;;;;;26.75;24.50;;;;;;;;5036842;28;45385;-69
2021/12/14 11:15:00;;;;;;;;;19.00;18.00;;;;;;;;5047787;28;46669;-72
2021/12/14 11:20:15;;;;;;;;;24.25;23.00;;;;;;;;5094846;27;45304;-74
2021/12/14 11:22:50;;;;;;;;;24.50;21.75;;;;;;;;5111218;27;45255;-73
2021/12/14 11:25:20;;;;;;;;;21.50;20.75;;;;;;;;5085008;27;46715;-71
2021/12/14 11:27:51;;;;;;;;;24.00;21.25;;;;;;;;5093229;27;45550;-74
2021/12/14 11:30:23;;;;;;;;;25.00;23.00;;;;;;;;5095134;27;45439;-72
2021/12/14 11:33:01;;;;;;;;;23.00;22.00;;;;;;;;5104038;27;45383;-72
2021/12/14 11:35:28;;;;;;;;;20.00;19.75;;;;;;;;5085801;27;48468;-72
2021/12/14 11:37:55;;;;;;;;;27.75;24.50;;;;;;;;5108943;27;45516;-71
2021/12/14 11:40:23;;;;;;;;;27.00;21.75;;;;;;;;5105956;27;45355;-73
2021/12/14 11:42:50;;;;;;;;;25.25;22.00;;;;;;;;5099837;27;45465;-74
2021/12/14 11:45:18;;;;;;;;;24.75;23.75;;;;;;;;5085978;27;48341;-71
2021/12/14 11:47:46;;;;;;;;;26.75;24.00;;;;;;;;5084814;27;45840;-72
2021/12/14 11:50:15;;;;;;;;;26.00;21.50;;;;;;;;5101657;27;45589;-74
2021/12/14 11:52:52;;;;;;;;;29.00;25.25;;;;;;;;5114126;27;45537;-74
2021/12/14 11:55:36;;;;;;;;;32.75;25.75;;;;;;;;5105618;27;46575;-70
2021/12/14 11:58:18;;;;;;;;;29.00;27.75;;;;;;;;5097266;27;46063;-74
2021/12/14 12:00:45;;;;;;;;;25.75;24.75;;;;;;;;5114553;27;45372;-68
2021/12/14 12:03:32;;;;;;;;;31.25;25.50;;;;;;;;5106499;27;45282;-67
2021/12/14 12:06:05;;;;;;;;;30.00;28.00;;;;;;;;5113736;27;46323;-69
2021/12/14 12:11:17;;;;;;;;;29.25;28.25;;;;;;;;5103747;27;45419;-71
2021/12/14 12:13:48;;;;;;;;;35.25;29.75;;;;;;;;5096977;27;45468;-70
2021/12/14 12:16:14;;;;;;;;;32.00;30.50;;;;;;;;5115119;27;45620;-71
2021/12/14 12:19:00;;;;;;;;;29.50;28.75;;;;;;;;5114507;27;45422;-70
2021/12/14 12:21:26;;;;;;;;;29.00;28.50;;;;;;;;5113821;27;45290;-72
2021/12/14 12:23:52;;;;;;;;;29.00;27.75;;;;;;;;5083619;27;45598;-71
2021/12/14 12:26:20;;;;;;;;;31.50;29.00;;;;;;;;5083105;27;46632;-71
2021/12/14 12:28:46;;;;;;;;;29.25;26.75;;;;;;;;5089327;27;45860;-72
2021/12/14 12:31:15;;;;;;;;;29.75;25.25;;;;;;;;5114052;27;45414;-72
2021/12/14 12:33:45;;;;;;;;;33.50;30.50;;;;;;;;5097478;27;45437;-72
2021/12/14 12:36:20;;;;;;;;;34.00;30.25;;;;;;;;5112762;27;45834;-72
2021/12/14 12:38:53;;;;;;;;;35.75;31.25;;;;;;;;5111613;27;45373;-72
2021/12/14 12:41:40;;;;;;;;;33.00;28.50;;;;;;;;5089126;27;45415;-72
2021/12/14 12:44:11;;;;;;;;;27.75;24.00;;;;;;;;5083886;27;45598;-73
2021/12/14 12:46:37;;;;;;;;;33.50;32.75;;;;;;;;5101802;27;46313;-72
2021/12/14 12:49:08;;;;;;;;;31.00;29.25;;;;;;;;5105824;27;45336;-72
2021/12/14 12:51:36;;;;;;;;;35.00;32.50;;;;;;;;5115421;27;45354;-73
2021/12/14 12:54:16;;;;;;;;;24.25;22.50;;;;;;;;5093396;27;45302;-73
2021/12/14 12:56:42;;;;;;;;;34.25;32.75;;;;;;;;5092657;27;47900;-73
2021/12/14 12:59:09;;;;;;;;;31.75;30.25;;;;;;;;5092648;27;46221;-72
2021/12/14 13:01:35;;;;;;;;;33.75;30.75;;;;;;;;5111848;27;45269;-73
2021/12/14 13:04:01;;;;;;;;;29.75;29.75;;;;;;;;5097147;27;45286;-73
2021/12/14 13:06:26;;;;;;;;;32.75;29.25;;;;;;;;5113164;27;45462;-73
2021/12/14 13:08:55;;;;;;;;;33.75;30.50;;;;;;;;5093010;27;46177;-71
2021/12/14 13:11:26;;;;;;;;;27.75;26.25;;;;;;;;5108393;27;45494;-72
2021/12/14 13:13:53;;;;;;;;;26.00;25.25;;;;;;;;5102629;27;45379;-72
2021/12/14 13:16:21;;;;;;;;;29.25;29.00;;;;;;;;5099868;27;45779;-73
2021/12/14 13:18:46;;;;;;;;;26.75;25.25;;;;;;;;5081608;27;46149;-72
2021/12/14 13:21:14;;;;;;;;;29.75;26.75;;;;;;;;5083460;27;45405;-72
2021/12/14 13:23:49;;;;;;;;;28.00;25.00;;;;;;;;5109661;27;45178;-72
2021/12/14 13:26:25;;;;;;;;;26.75;24.50;;;;;;;;5092098;27;47934;-72
2021/12/14 13:28:52;;;;;;;;;28.00;26.75;;;;;;;;5092300;27;45545;-72
2021/12/14 13:31:25;;;;;;;;;29.00;25.25;;;;;;;;5114867;27;45471;-73
2021/12/14 13:33:50;;;;;;;;;37.00;33.00;;;;;;;;5115545;27;45503;-74
2021/12/14 13:36:15;;;;;;;;;25.50;24.50;;;;;;;;5112533;27;45715;-72
2021/12/14 13:38:40;;;;;;;;;25.75;24.25;;;;;;;;5110290;27;45603;-72
2021/12/14 13:41:17;;;;;;;;;26.50;25.75;;;;;;;;5110856;27;45397;-69
2021/12/14 13:43:42;;;;;;;;;29.00;28.00;;;;;;;;5110640;27;45360;-71
2021/12/14 13:46:07;;;;;;;;;33.00;31.00;;;;;;;;5114964;27;45380;-72
2021/12/14 13:48:34;;;;;;;;;30.50;28.75;;;;;;;;5112867;27;45458;-72
2021/12/14 13:51:04;;;;;;;;;30.75;30.75;;;;;;;;5102633;27;45398;-72
2021/12/14 13:53:29;;;;;;;;;29.50;27.00;;;;;;;;5101462;27;45489;-73
2021/12/14 13:55:56;;;;;;;;;35.00;33.00;;;;;;;;5085301;27;47770;-72
2021/12/14 13:58:24;;;;;;;;;32.25;28.25;;;;;;;;5095678;27;45460;-71
2021/12/14 14:00:54;;;;;;;;;44.50;36.00;;;;;;;;5099353;27;45490;-73
2021/12/14 14:03:23;;;;;;;;;39.00;35.75;;;;;;;;5099386;27;45191;-72
2021/12/14 14:05:48;;;;;;;;;42.25;34.75;;;;;;;;5092639;27;48590;-73
2021/12/14 14:08:18;;;;;;;;;38.00;36.00;;;;;;;;5109808;27;45383;-73
2021/12/14 14:10:46;;;;;;;;;38.25;35.00;;;;;;;;5110416;27;45681;-73
2021/12/14 14:13:19;;;;;;;;;42.75;36.50;;;;;;;;5113427;27;45436;-73
2021/12/14 14:15:45;;;;;;;;;37.50;35.50;;;;;;;;5094065;27;47884;-73
2021/12/14 14:18:13;;;;;;;;;37.50;33.75;;;;;;;;5110849;27;45381;-74
2021/12/14 14:20:40;;;;;;;;;38.00;32.75;;;;;;;;5091050;27;45429;-73
2021/12/14 14:23:10;;;;;;;;;47.00;33.75;;;;;;;;5109656;27;45341;-74
2021/12/14 14:25:41;;;;;;;;;39.25;32.25;;;;;;;;5110164;27;46282;-73
2021/12/14 14:28:06;;;;;;;;;33.50;33.00;;;;;;;;5098326;27;45427;-73
2021/12/14 14:30:45;;;;;;;;;40.25;35.25;;;;;;;;5111925;27;45442;-73
2021/12/14 14:33:21;;;;;;;;;31.25;27.25;;;;;;;;5110942;27;45317;-73
2021/12/14 14:35:50;;;;;;;;;31.25;29.00;;;;;;;;5091101;27;47530;-73
2021/12/14 14:38:28;;;;;;;;;36.50;34.75;;;;;;;;5091297;27;45498;-73
2021/12/14 14:40:54;;;;;;;;;39.50;35.25;;;;;;;;5109745;27;45659;-72
2021/12/14 14:43:19;;;;;;;;;33.75;29.50;;;;;;;;5112377;27;45608;-73
2021/12/14 14:45:45;;;;;;;;;36.00;32.00;;;;;;;;5112102;27;45376;-72
2021/12/14 14:48:18;;;;;;;;;37.75;34.50;;;;;;;;5110818;27;45379;-72
2021/12/14 14:50:44;;;;;;;;;39.75;35.50;;;;;;;;5090937;27;45567;-73
2021/12/14 14:53:11;;;;;;;;;31.75;28.50;;;;;;;;5092903;27;45571;-72
2021/12/14 14:55:36;;;;;;;;;35.50;33.50;;;;;;;;5110038;27;45439;-73
2021/12/14 14:58:05;;;;;;;;;35.00;33.75;;;;;;;;5112976;27;45337;-72
2021/12/14 15:00:50;;;;;;;;;31.25;28.00;;;;;;;;5093049;27;45370;-72
2021/12/14 15:03:24;;;;;;;;;30.75;28.50;;;;;;;;4994954;28;45685;-73
2021/12/14 15:05:50;;;;;;;;;31.75;29.75;;;;;;;;5007254;28;46471;-73
2021/12/14 15:08:18;;;;;;;;;45.00;37.00;;;;;;;;5011193;28;45502;-73